METAR AND TAF INFORMATION
METAR FOR KLSE
ADDS - METARS form results

(0609 UTC 27 April 2018)
Data provider http://aviationweather.gov/adds/metars/
 
METAR text: KLSE 270553Z AUTO 01005KT 10SM CLR 10/01 A2989 RMK AO2 SLP119 T01000011 10183 20100 402220039 51016
Conditions at: KLSE (LA CROSSE , WI, US) observed 0553 UTC 27 April 2018
Temperature: 10.0°C (50°F)
Dewpoint: 1.1°C (34°F) [RH = 54%]
Pressure (altimeter): 29.89 inches Hg (1012.3 mb)
[Sea-level pressure: 1011.9 mb]
Winds: from the N (10 degrees) at 6 MPH (5 knots; 2.6 m/s)
Visibility: 10 or more miles (16+ km)
Ceiling: at least 12,000 feet AGL
Clouds: sky clear below 12,000 feet AGL
Weather: automated observation with no human augmentation;
there may or may not be significant weather present at this time

Forecast for: KLSE (LA CROSSE , WI, US)
Text: KLSE 270520Z 2706/2806 36007KT P6SM SKC
Forecast period: 0600 to 1500 UTC 27 April 2018
Forecast type: FROM: standard forecast or significant change
Winds: from the N (360 degrees) at 8 MPH (7 knots; 3.6 m/s)
Visibility: 6 or more miles (10+ km)
Clouds: clear skies
Weather: no significant weather forecast for this period
Forecast for: KLSE (LA CROSSE , WI, US)
Text: KLSE 270520Z 2706/2806 36007KT P6SM SKC
Forecast period: 0600 to 1500 UTC 27 April 2018
Forecast type: FROM: standard forecast or significant change
Winds: from the N (360 degrees) at 8 MPH (7 knots; 3.6 m/s)
Visibility: 6 or more miles (10+ km)
Clouds: clear skies
Weather: no significant weather forecast for this period
Forecast for: KLSE (LA CROSSE , WI, US)
Text: KLSE 270520Z 2706/2806 36007KT P6SM SKC
Forecast period: 1500 to 1700 UTC 27 April 2018
Forecast type: FROM: standard forecast or significant change
Winds: from the SW (230 degrees) at 9 MPH (8 knots; 4.2 m/s)
Visibility: 6 or more miles (10+ km)
Clouds: scattered clouds at 11000 feet AGL
Weather: no significant weather forecast for this period
Forecast for: KLSE (LA CROSSE , WI, US)
Text: KLSE 270520Z 2706/2806 36007KT P6SM SKC
Forecast period: 1500 to 1700 UTC 27 April 2018
Forecast type: FROM: standard forecast or significant change
Winds: from the SW (230 degrees) at 9 MPH (8 knots; 4.2 m/s)
Visibility: 6 or more miles (10+ km)
Clouds: scattered clouds at 11000 feet AGL
Weather: no significant weather forecast for this period
Forecast for: KLSE (LA CROSSE , WI, US)
Text: KLSE 270520Z 2706/2806 36007KT P6SM SKC
Forecast period: 1700 to 1900 UTC 27 April 2018
Forecast type: FROM: standard forecast or significant change
Winds: from the W (280 degrees) at 13 MPH (11 knots; 5.7 m/s)
gusting to 23 MPH (20 knots; 10.4 m/s)
Visibility: 6 or more miles (10+ km)
Clouds: scattered clouds at 11000 feet AGL
Weather: no significant weather forecast for this period
Forecast for: KLSE (LA CROSSE , WI, US)
Text: KLSE 270520Z 2706/2806 36007KT P6SM SKC
Forecast period: 1700 to 1900 UTC 27 April 2018
Forecast type: FROM: standard forecast or significant change
Winds: from the W (280 degrees) at 13 MPH (11 knots; 5.7 m/s)
gusting to 23 MPH (20 knots; 10.4 m/s)
Visibility: 6 or more miles (10+ km)
Clouds: scattered clouds at 11000 feet AGL
Weather: no significant weather forecast for this period
Forecast for: KLSE (LA CROSSE , WI, US)
Text: KLSE 270520Z 2706/2806 36007KT P6SM SKC
Forecast period: 1900 UTC 27 April 2018 to 0100 UTC 28 April 2018
Forecast type: FROM: standard forecast or significant change
Winds: from the NW (320 degrees) at 18 MPH (16 knots; 8.3 m/s)
gusting to 29 MPH (25 knots; 13.0 m/s)
Visibility: 6 or more miles (10+ km)
Clouds: scattered clouds at 12000 feet AGL
Weather: no significant weather forecast for this period
Forecast for: KLSE (LA CROSSE , WI, US)
Text: KLSE 270520Z 2706/2806 36007KT P6SM SKC
Forecast period: 1900 UTC 27 April 2018 to 0100 UTC 28 April 2018
Forecast type: FROM: standard forecast or significant change
Winds: from the NW (320 degrees) at 18 MPH (16 knots; 8.3 m/s)
gusting to 29 MPH (25 knots; 13.0 m/s)
Visibility: 6 or more miles (10+ km)
Clouds: scattered clouds at 12000 feet AGL
Weather: no significant weather forecast for this period
Forecast for: KLSE (LA CROSSE , WI, US)
Text: KLSE 270520Z 2706/2806 36007KT P6SM SKC
Forecast period: 0100 to 0600 UTC 28 April 2018
Forecast type: FROM: standard forecast or significant change
Winds: from the N (350 degrees) at 13 MPH (11 knots; 5.7 m/s)
Visibility: 6 or more miles (10+ km)
Clouds: scattered clouds at 5000 feet AGL
Weather: no significant weather forecast for this period
Forecast for: KLSE (LA CROSSE , WI, US)
Text: KLSE 270520Z 2706/2806 36007KT P6SM SKC
Forecast period: 0100 to 0600 UTC 28 April 2018
Forecast type: FROM: standard forecast or significant change
Winds: from the N (350 degrees) at 13 MPH (11 knots; 5.7 m/s)
Visibility: 6 or more miles (10+ km)
Clouds: scattered clouds at 5000 feet AGL
Weather: no significant weather forecast for this period

 AIRPORT MAP

 RUNWAY INFORMATION
Runway 03 Runway length 5299 ft Runway width 150 ft
Runway elevation 647 ft Runway displaced threshold 0 ft Runway heading 36
Runway 21 Runway length 5299 ft Runway width 150 ft
Runway elevation 653 ft Runway displaced threshold 0 ft Runway heading 216
Runway 13 Runway length 6050 ft Runway width 150 ft
Runway elevation 653 ft Runway displaced threshold 0 ft Runway heading 134
Runway 31 Runway length 6050 ft Runway width 150 ft
Runway elevation 651 ft Runway displaced threshold 750 ft Runway heading 314
Runway 18 Runway length 8537 ft Runway width 150 ft
Runway elevation 652 ft Runway displaced threshold 0 ft Runway heading 179
Runway 36 Runway length 8537 ft Runway width 150 ft
Runway elevation 648 ft Runway displaced threshold 924 ft Runway heading 359

 AIRPORT FREQUENCIES
Type ATIS Name ATIS Frequency 124.95 MHZ
Type CNTR Name MINNEAPOLI Frequency 128.6 MHZ
Type CTAF Name CTAF Frequency 118.45 MHZ
Type GND Name GND Frequency 121.8 MHZ
Type RDO Name GREEN BAY Frequency 122.2 MHZ
Type TWR Name TWR Frequency 118.45 MHZ
Type UNIC Name UNICOM Frequency 122.95 MHZ

 AIRPORT NEAR NAVIGATION AIDS
Type NDB Name Mindi Frequency 272 KHZ
Type VOR-DME Name La Crosse Frequency 108400 KHZ



Powered by Virtual Airlines Manager [v2.6.2]